sensor_id;sensor_type;location;lat;lon;timestamp;P1;durP1;ratioP1;P2;durP2;ratioP2
68995;SDS011;56056;48.990;12.146;2023-05-23T00:00:13;755.10;;;706.88;;
68995;SDS011;56056;48.990;12.146;2023-05-23T00:02:39;755.03;;;706.10;;
68995;SDS011;56056;48.990;12.146;2023-05-23T00:05:05;747.33;;;698.85;;
68995;SDS011;56056;48.990;12.146;2023-05-23T00:07:31;746.03;;;696.63;;
68995;SDS011;56056;48.990;12.146;2023-05-23T00:09:58;771.97;;;720.97;;
68995;SDS011;56056;48.990;12.146;2023-05-23T00:12:24;711.65;;;665.53;;
68995;SDS011;56056;48.990;12.146;2023-05-23T00:14:51;700.28;;;658.70;;
68995;SDS011;56056;48.990;12.146;2023-05-23T00:17:17;718.05;;;673.40;;
68995;SDS011;56056;48.990;12.146;2023-05-23T00:19:43;703.80;;;660.03;;
68995;SDS011;56056;48.990;12.146;2023-05-23T00:22:10;699.85;;;656.15;;
68995;SDS011;56056;48.990;12.146;2023-05-23T00:24:36;707.70;;;663.05;;
68995;SDS011;56056;48.990;12.146;2023-05-23T00:27:03;709.53;;;664.88;;
68995;SDS011;56056;48.990;12.146;2023-05-23T00:29:29;666.65;;;625.00;;
68995;SDS011;56056;48.990;12.146;2023-05-23T00:31:55;676.40;;;634.13;;
68995;SDS011;56056;48.990;12.146;2023-05-23T00:34:20;699.97;;;654.78;;
68995;SDS011;56056;48.990;12.146;2023-05-23T00:36:46;672.60;;;630.97;;
68995;SDS011;56056;48.990;12.146;2023-05-23T00:39:14;733.88;;;687.72;;
68995;SDS011;56056;48.990;12.146;2023-05-23T00:41:45;728.67;;;681.05;;
68995;SDS011;56056;48.990;12.146;2023-05-23T00:44:14;707.15;;;661.53;;
68995;SDS011;56056;48.990;12.146;2023-05-23T00:46:39;696.60;;;651.80;;
68995;SDS011;56056;48.990;12.146;2023-05-23T00:49:06;689.78;;;647.65;;
68995;SDS011;56056;48.990;12.146;2023-05-23T00:51:32;702.38;;;657.05;;
68995;SDS011;56056;48.990;12.146;2023-05-23T00:53:57;698.83;;;653.85;;
68995;SDS011;56056;48.990;12.146;2023-05-23T00:56:25;684.92;;;643.40;;
68995;SDS011;56056;48.990;12.146;2023-05-23T00:58:51;687.13;;;645.70;;
68995;SDS011;56056;48.990;12.146;2023-05-23T01:01:19;677.95;;;636.35;;
68995;SDS011;56056;48.990;12.146;2023-05-23T01:03:45;668.70;;;627.22;;
68995;SDS011;56056;48.990;12.146;2023-05-23T01:06:12;651.15;;;612.85;;
68995;SDS011;56056;48.990;12.146;2023-05-23T01:08:38;703.50;;;661.67;;
68995;SDS011;56056;48.990;12.146;2023-05-23T01:11:05;685.45;;;642.88;;
68995;SDS011;56056;48.990;12.146;2023-05-23T01:13:39;657.15;;;616.55;;
68995;SDS011;56056;48.990;12.146;2023-05-23T01:16:09;655.10;;;616.72;;
68995;SDS011;56056;48.990;12.146;2023-05-23T01:18:39;672.58;;;631.85;;
68995;SDS011;56056;48.990;12.146;2023-05-23T01:21:10;669.85;;;630.70;;
68995;SDS011;56056;48.990;12.146;2023-05-23T01:23:44;671.53;;;630.90;;
68995;SDS011;56056;48.990;12.146;2023-05-23T01:26:28;662.25;;;622.38;;
68995;SDS011;56056;48.990;12.146;2023-05-23T01:29:01;657.95;;;616.83;;
68995;SDS011;56056;48.990;12.146;2023-05-23T01:31:34;656.38;;;617.03;;
68995;SDS011;56056;48.990;12.146;2023-05-23T01:34:01;689.10;;;646.28;;
68995;SDS011;56056;48.990;12.146;2023-05-23T01:36:27;681.53;;;641.45;;
68995;SDS011;56056;48.990;12.146;2023-05-23T01:38:53;696.33;;;655.38;;
68995;SDS011;56056;48.990;12.146;2023-05-23T01:41:18;699.97;;;656.78;;
68995;SDS011;56056;48.990;12.146;2023-05-23T01:43:44;719.40;;;675.15;;
68995;SDS011;56056;48.990;12.146;2023-05-23T01:46:12;668.45;;;627.20;;
68995;SDS011;56056;48.990;12.146;2023-05-23T01:48:38;703.33;;;660.35;;
68995;SDS011;56056;48.990;12.146;2023-05-23T01:51:04;700.67;;;657.30;;
68995;SDS011;56056;48.990;12.146;2023-05-23T01:53:31;730.50;;;685.40;;
68995;SDS011;56056;48.990;12.146;2023-05-23T01:55:57;696.25;;;652.17;;
68995;SDS011;56056;48.990;12.146;2023-05-23T01:58:27;633.47;;;595.15;;
68995;SDS011;56056;48.990;12.146;2023-05-23T02:00:52;699.15;;;653.38;;
68995;SDS011;56056;48.990;12.146;2023-05-23T02:03:19;688.13;;;644.10;;
68995;SDS011;56056;48.990;12.146;2023-05-23T02:05:45;690.67;;;648.83;;
68995;SDS011;56056;48.990;12.146;2023-05-23T02:08:11;695.60;;;651.85;;
68995;SDS011;56056;48.990;12.146;2023-05-23T02:10:36;697.92;;;654.05;;
68995;SDS011;56056;48.990;12.146;2023-05-23T02:13:02;723.50;;;679.15;;
68995;SDS011;56056;48.990;12.146;2023-05-23T02:15:27;716.88;;;671.58;;
68995;SDS011;56056;48.990;12.146;2023-05-23T02:17:53;703.53;;;659.83;;
68995;SDS011;56056;48.990;12.146;2023-05-23T02:20:20;690.67;;;648.60;;
68995;SDS011;56056;48.990;12.146;2023-05-23T02:22:46;656.90;;;616.92;;
68995;SDS011;56056;48.990;12.146;2023-05-23T02:25:11;673.78;;;633.08;;
68995;SDS011;56056;48.990;12.146;2023-05-23T02:27:37;726.25;;;681.78;;
68995;SDS011;56056;48.990;12.146;2023-05-23T02:30:03;693.95;;;650.95;;
68995;SDS011;56056;48.990;12.146;2023-05-23T02:32:29;673.42;;;631.85;;
68995;SDS011;56056;48.990;12.146;2023-05-23T02:34:56;705.17;;;661.20;;
68995;SDS011;56056;48.990;12.146;2023-05-23T02:37:23;704.53;;;660.38;;
68995;SDS011;56056;48.990;12.146;2023-05-23T02:39:49;661.67;;;621.38;;
68995;SDS011;56056;48.990;12.146;2023-05-23T02:42:14;702.40;;;658.72;;
68995;SDS011;56056;48.990;12.146;2023-05-23T02:44:40;687.75;;;643.35;;
68995;SDS011;56056;48.990;12.146;2023-05-23T02:47:06;691.20;;;648.60;;
68995;SDS011;56056;48.990;12.146;2023-05-23T02:49:31;659.22;;;618.80;;
68995;SDS011;56056;48.990;12.146;2023-05-23T02:51:57;676.58;;;635.35;;
68995;SDS011;56056;48.990;12.146;2023-05-23T02:54:24;644.53;;;604.75;;
68995;SDS011;56056;48.990;12.146;2023-05-23T02:56:50;627.55;;;590.38;;
68995;SDS011;56056;48.990;12.146;2023-05-23T02:59:17;652.78;;;611.63;;
68995;SDS011;56056;48.990;12.146;2023-05-23T03:01:43;649.80;;;610.20;;
68995;SDS011;56056;48.990;12.146;2023-05-23T03:04:09;667.05;;;625.97;;
68995;SDS011;56056;48.990;12.146;2023-05-23T03:06:34;678.25;;;636.00;;
68995;SDS011;56056;48.990;12.146;2023-05-23T03:09:00;669.95;;;628.63;;
68995;SDS011;56056;48.990;12.146;2023-05-23T03:11:27;711.15;;;666.40;;
68995;SDS011;56056;48.990;12.146;2023-05-23T03:13:53;689.33;;;646.45;;
68995;SDS011;56056;48.990;12.146;2023-05-23T03:16:20;676.47;;;633.97;;
68995;SDS011;56056;48.990;12.146;2023-05-23T03:18:46;699.88;;;657.75;;
68995;SDS011;56056;48.990;12.146;2023-05-23T03:21:11;711.78;;;667.47;;
68995;SDS011;56056;48.990;12.146;2023-05-23T03:23:37;734.03;;;687.03;;
68995;SDS011;56056;48.990;12.146;2023-05-23T03:26:03;746.85;;;699.92;;
68995;SDS011;56056;48.990;12.146;2023-05-23T03:28:31;729.80;;;683.03;;
68995;SDS011;56056;48.990;12.146;2023-05-23T03:30:57;760.83;;;710.70;;
68995;SDS011;56056;48.990;12.146;2023-05-23T03:33:23;713.40;;;667.35;;
68995;SDS011;56056;48.990;12.146;2023-05-23T03:35:49;753.95;;;704.33;;
68995;SDS011;56056;48.990;12.146;2023-05-23T03:38:15;774.53;;;723.53;;
68995;SDS011;56056;48.990;12.146;2023-05-23T03:40:40;783.75;;;731.00;;
68995;SDS011;56056;48.990;12.146;2023-05-23T03:43:07;736.65;;;688.85;;
68995;SDS011;56056;48.990;12.146;2023-05-23T03:45:34;774.97;;;723.45;;
68995;SDS011;56056;48.990;12.146;2023-05-23T03:48:00;785.25;;;733.13;;
68995;SDS011;56056;48.990;12.146;2023-05-23T03:50:25;707.85;;;662.22;;
68995;SDS011;56056;48.990;12.146;2023-05-23T03:52:51;725.33;;;679.33;;
68995;SDS011;56056;48.990;12.146;2023-05-23T03:55:17;762.40;;;712.80;;
68995;SDS011;56056;48.990;12.146;2023-05-23T03:57:46;766.20;;;713.95;;
68995;SDS011;56056;48.990;12.146;2023-05-23T04:00:12;734.55;;;685.58;;
68995;SDS011;56056;48.990;12.146;2023-05-23T04:02:39;765.58;;;714.25;;
68995;SDS011;56056;48.990;12.146;2023-05-23T04:05:05;767.75;;;716.42;;
68995;SDS011;56056;48.990;12.146;2023-05-23T04:07:31;716.13;;;669.78;;
68995;SDS011;56056;48.990;12.146;2023-05-23T04:10:00;785.80;;;732.72;;
68995;SDS011;56056;48.990;12.146;2023-05-23T04:12:26;747.10;;;698.08;;
68995;SDS011;56056;48.990;12.146;2023-05-23T04:14:54;741.25;;;693.25;;
68995;SDS011;56056;48.990;12.146;2023-05-23T04:17:20;763.65;;;713.75;;
68995;SDS011;56056;48.990;12.146;2023-05-23T04:19:47;742.83;;;693.83;;
68995;SDS011;56056;48.990;12.146;2023-05-23T04:22:13;747.42;;;697.00;;
68995;SDS011;56056;48.990;12.146;2023-05-23T04:24:39;780.42;;;726.85;;
68995;SDS011;56056;48.990;12.146;2023-05-23T04:27:05;761.58;;;709.33;;
68995;SDS011;56056;48.990;12.146;2023-05-23T04:29:31;807.83;;;751.45;;
68995;SDS011;56056;48.990;12.146;2023-05-23T04:31:58;839.03;;;778.00;;
68995;SDS011;56056;48.990;12.146;2023-05-23T04:34:24;882.55;;;815.05;;
68995;SDS011;56056;48.990;12.146;2023-05-23T04:36:52;901.65;;;833.40;;
68995;SDS011;56056;48.990;12.146;2023-05-23T04:39:18;861.78;;;795.88;;
68995;SDS011;56056;48.990;12.146;2023-05-23T04:41:44;926.20;;;851.42;;
68995;SDS011;56056;48.990;12.146;2023-05-23T04:44:10;899.25;;;833.13;;
68995;SDS011;56056;48.990;12.146;2023-05-23T04:46:35;864.30;;;800.33;;
68995;SDS011;56056;48.990;12.146;2023-05-23T04:49:05;840.70;;;776.72;;
68995;SDS011;56056;48.990;12.146;2023-05-23T04:51:31;872.45;;;807.08;;
68995;SDS011;56056;48.990;12.146;2023-05-23T04:53:59;821.83;;;763.70;;
68995;SDS011;56056;48.990;12.146;2023-05-23T04:56:24;852.78;;;790.00;;
68995;SDS011;56056;48.990;12.146;2023-05-23T04:58:52;854.10;;;793.65;;
68995;SDS011;56056;48.990;12.146;2023-05-23T05:01:17;869.70;;;808.17;;
68995;SDS011;56056;48.990;12.146;2023-05-23T05:03:43;883.58;;;820.95;;
68995;SDS011;56056;48.990;12.146;2023-05-23T05:06:09;899.47;;;832.80;;
68995;SDS011;56056;48.990;12.146;2023-05-23T05:08:34;865.15;;;799.05;;
68995;SDS011;56056;48.990;12.146;2023-05-23T05:11:02;937.83;;;863.58;;
68995;SDS011;56056;48.990;12.146;2023-05-23T05:13:27;949.38;;;873.30;;
68995;SDS011;56056;48.990;12.146;2023-05-23T05:15:53;964.00;;;883.70;;
68995;SDS011;56056;48.990;12.146;2023-05-23T05:18:19;973.83;;;889.72;;
68995;SDS011;56056;48.990;12.146;2023-05-23T05:20:44;1000.70;;;913.30;;
68995;SDS011;56056;48.990;12.146;2023-05-23T05:23:11;965.80;;;885.17;;
68995;SDS011;56056;48.990;12.146;2023-05-23T05:25:36;1088.05;;;988.72;;
68995;SDS011;56056;48.990;12.146;2023-05-23T05:28:03;1052.13;;;958.05;;
68995;SDS011;56056;48.990;12.146;2023-05-23T05:30:32;1033.43;;;943.60;;
68995;SDS011;56056;48.990;12.146;2023-05-23T05:32:59;1035.45;;;946.97;;
68995;SDS011;56056;48.990;12.146;2023-05-23T05:35:26;907.80;;;839.10;;
68995;SDS011;56056;48.990;12.146;2023-05-23T05:37:51;968.00;;;889.50;;
68995;SDS011;56056;48.990;12.146;2023-05-23T05:40:17;1012.97;;;927.60;;
68995;SDS011;56056;48.990;12.146;2023-05-23T05:42:42;1013.30;;;931.22;;
68995;SDS011;56056;48.990;12.146;2023-05-23T05:45:10;1134.70;;;999.90;;
68995;SDS011;56056;48.990;12.146;2023-05-23T05:47:35;1125.50;;;999.90;;
68995;SDS011;56056;48.990;12.146;2023-05-23T05:50:03;1152.55;;;999.90;;
68995;SDS011;56056;48.990;12.146;2023-05-23T05:52:29;1286.82;;;999.90;;
68995;SDS011;56056;48.990;12.146;2023-05-23T05:54:54;1185.03;;;999.90;;
68995;SDS011;56056;48.990;12.146;2023-05-23T05:57:21;1184.53;;;999.90;;
68995;SDS011;56056;48.990;12.146;2023-05-23T05:59:47;1302.10;;;999.90;;
68995;SDS011;56056;48.990;12.146;2023-05-23T06:02:14;1223.60;;;999.90;;
68995;SDS011;56056;48.990;12.146;2023-05-23T06:04:40;1152.90;;;999.90;;
68995;SDS011;56056;48.990;12.146;2023-05-23T06:07:05;1123.68;;;999.90;;
68995;SDS011;56056;48.990;12.146;2023-05-23T06:09:31;1152.25;;;999.90;;
68995;SDS011;56056;48.990;12.146;2023-05-23T06:11:56;1192.90;;;999.90;;
68995;SDS011;56056;48.990;12.146;2023-05-23T06:14:23;1112.63;;;999.90;;
68995;SDS011;56056;48.990;12.146;2023-05-23T06:16:50;1116.93;;;999.90;;
68995;SDS011;56056;48.990;12.146;2023-05-23T06:19:16;1124.22;;;999.90;;
68995;SDS011;56056;48.990;12.146;2023-05-23T06:21:42;1121.47;;;999.90;;
68995;SDS011;56056;48.990;12.146;2023-05-23T06:24:08;1111.13;;;999.90;;
68995;SDS011;56056;48.990;12.146;2023-05-23T06:26:33;1135.20;;;999.90;;
68995;SDS011;56056;48.990;12.146;2023-05-23T06:29:01;1045.35;;;956.78;;
68995;SDS011;56056;48.990;12.146;2023-05-23T06:31:27;1070.50;;;975.15;;
68995;SDS011;56056;48.990;12.146;2023-05-23T06:33:52;1113.82;;;999.53;;
68995;SDS011;56056;48.990;12.146;2023-05-23T06:36:19;1083.40;;;984.97;;
68995;SDS011;56056;48.990;12.146;2023-05-23T06:38:45;1080.55;;;981.80;;
68995;SDS011;56056;48.990;12.146;2023-05-23T06:41:12;1149.25;;;999.90;;
68995;SDS011;56056;48.990;12.146;2023-05-23T06:43:37;1120.47;;;999.90;;
68995;SDS011;56056;48.990;12.146;2023-05-23T06:46:03;1126.57;;;999.90;;
68995;SDS011;56056;48.990;12.146;2023-05-23T06:48:29;1132.07;;;999.90;;
68995;SDS011;56056;48.990;12.146;2023-05-23T06:50:54;1169.07;;;999.90;;
68995;SDS011;56056;48.990;12.146;2023-05-23T06:53:21;1249.25;;;999.90;;
68995;SDS011;56056;48.990;12.146;2023-05-23T06:55:47;1258.63;;;999.90;;
68995;SDS011;56056;48.990;12.146;2023-05-23T06:58:13;1412.00;;;999.90;;
68995;SDS011;56056;48.990;12.146;2023-05-23T07:00:38;1332.75;;;999.90;;
68995;SDS011;56056;48.990;12.146;2023-05-23T07:03:05;1406.03;;;999.90;;
68995;SDS011;56056;48.990;12.146;2023-05-23T07:05:31;1546.25;;;999.90;;
68995;SDS011;56056;48.990;12.146;2023-05-23T07:07:58;1394.80;;;999.90;;
68995;SDS011;56056;48.990;12.146;2023-05-23T07:10:25;1353.45;;;999.90;;
68995;SDS011;56056;48.990;12.146;2023-05-23T07:12:50;1546.60;;;999.90;;
68995;SDS011;56056;48.990;12.146;2023-05-23T07:15:16;1583.63;;;999.90;;
68995;SDS011;56056;48.990;12.146;2023-05-23T07:17:42;1591.63;;;999.90;;
68995;SDS011;56056;48.990;12.146;2023-05-23T07:20:08;1587.82;;;999.90;;
68995;SDS011;56056;48.990;12.146;2023-05-23T07:22:35;1552.90;;;999.90;;
68995;SDS011;56056;48.990;12.146;2023-05-23T07:25:00;1550.07;;;999.90;;
68995;SDS011;56056;48.990;12.146;2023-05-23T07:27:27;1395.25;;;999.90;;
68995;SDS011;56056;48.990;12.146;2023-05-23T07:29:53;1235.50;;;999.90;;
68995;SDS011;56056;48.990;12.146;2023-05-23T07:32:19;1366.88;;;999.90;;
68995;SDS011;56056;48.990;12.146;2023-05-23T07:34:44;1217.22;;;999.90;;
68995;SDS011;56056;48.990;12.146;2023-05-23T07:37:10;1191.72;;;999.90;;
68995;SDS011;56056;48.990;12.146;2023-05-23T07:39:36;1361.93;;;999.90;;
68995;SDS011;56056;48.990;12.146;2023-05-23T07:42:02;1234.68;;;999.90;;
68995;SDS011;56056;48.990;12.146;2023-05-23T07:44:29;1283.85;;;999.90;;
68995;SDS011;56056;48.990;12.146;2023-05-23T07:46:54;1344.85;;;999.90;;
68995;SDS011;56056;48.990;12.146;2023-05-23T07:49:20;1559.45;;;999.90;;
68995;SDS011;56056;48.990;12.146;2023-05-23T07:51:46;1476.70;;;999.90;;
68995;SDS011;56056;48.990;12.146;2023-05-23T07:54:11;1585.85;;;999.90;;
68995;SDS011;56056;48.990;12.146;2023-05-23T07:56:37;1480.80;;;999.90;;
68995;SDS011;56056;48.990;12.146;2023-05-23T07:59:03;1693.35;;;999.90;;
68995;SDS011;56056;48.990;12.146;2023-05-23T08:01:30;1773.00;;;999.90;;
68995;SDS011;56056;48.990;12.146;2023-05-23T08:03:56;1753.90;;;999.90;;
68995;SDS011;56056;48.990;12.146;2023-05-23T08:06:21;1687.32;;;999.90;;
68995;SDS011;56056;48.990;12.146;2023-05-23T08:08:47;1710.68;;;999.90;;
68995;SDS011;56056;48.990;12.146;2023-05-23T08:11:13;1697.35;;;999.90;;
68995;SDS011;56056;48.990;12.146;2023-05-23T08:13:39;1641.13;;;999.90;;
68995;SDS011;56056;48.990;12.146;2023-05-23T08:16:05;1610.03;;;999.90;;
68995;SDS011;56056;48.990;12.146;2023-05-23T08:18:32;1695.03;;;999.90;;
68995;SDS011;56056;48.990;12.146;2023-05-23T08:20:57;1723.57;;;999.90;;
68995;SDS011;56056;48.990;12.146;2023-05-23T08:23:23;1646.80;;;999.90;;
68995;SDS011;56056;48.990;12.146;2023-05-23T08:25:49;1689.15;;;999.90;;
68995;SDS011;56056;48.990;12.146;2023-05-23T08:28:15;1204.07;;;999.90;;
68995;SDS011;56056;48.990;12.146;2023-05-23T08:30:41;1742.05;;;999.90;;
68995;SDS011;56056;48.990;12.146;2023-05-23T08:33:06;1601.15;;;999.90;;
68995;SDS011;56056;48.990;12.146;2023-05-23T08:35:33;1913.38;;;999.90;;
68995;SDS011;56056;48.990;12.146;2023-05-23T08:38:00;1776.50;;;999.90;;
68995;SDS011;56056;48.990;12.146;2023-05-23T08:40:26;1741.10;;;999.90;;
68995;SDS011;56056;48.990;12.146;2023-05-23T08:42:53;1633.00;;;999.90;;
68995;SDS011;56056;48.990;12.146;2023-05-23T08:45:19;1920.72;;;999.90;;
68995;SDS011;56056;48.990;12.146;2023-05-23T08:47:45;1644.30;;;999.90;;
68995;SDS011;56056;48.990;12.146;2023-05-23T08:50:11;1582.90;;;999.90;;
68995;SDS011;56056;48.990;12.146;2023-05-23T08:52:42;1999.90;;;999.90;;
68995;SDS011;56056;48.990;12.146;2023-05-23T08:55:09;1822.78;;;999.90;;
68995;SDS011;56056;48.990;12.146;2023-05-23T08:57:35;1999.90;;;999.90;;
68995;SDS011;56056;48.990;12.146;2023-05-23T09:00:02;1661.22;;;999.90;;
68995;SDS011;56056;48.990;12.146;2023-05-23T09:02:34;1506.28;;;999.90;;
68995;SDS011;56056;48.990;12.146;2023-05-23T09:05:00;1718.78;;;999.90;;
68995;SDS011;56056;48.990;12.146;2023-05-23T09:07:25;1465.10;;;999.90;;
68995;SDS011;56056;48.990;12.146;2023-05-23T09:09:54;1645.43;;;999.90;;
68995;SDS011;56056;48.990;12.146;2023-05-23T09:12:20;1762.05;;;999.90;;
68995;SDS011;56056;48.990;12.146;2023-05-23T09:14:49;1467.00;;;999.90;;
68995;SDS011;56056;48.990;12.146;2023-05-23T09:17:15;1230.13;;;999.90;;
68995;SDS011;56056;48.990;12.146;2023-05-23T09:19:42;1420.57;;;999.90;;
68995;SDS011;56056;48.990;12.146;2023-05-23T09:22:07;1523.35;;;999.90;;
68995;SDS011;56056;48.990;12.146;2023-05-23T09:24:33;1657.53;;;999.90;;
68995;SDS011;56056;48.990;12.146;2023-05-23T09:27:01;1845.07;;;999.90;;
68995;SDS011;56056;48.990;12.146;2023-05-23T09:29:27;1433.53;;;999.90;;
68995;SDS011;56056;48.990;12.146;2023-05-23T09:31:58;1509.20;;;999.90;;
68995;SDS011;56056;48.990;12.146;2023-05-23T09:34:24;1545.13;;;999.90;;
68995;SDS011;56056;48.990;12.146;2023-05-23T09:36:50;1669.13;;;999.90;;
68995;SDS011;56056;48.990;12.146;2023-05-23T09:39:19;1547.00;;;999.90;;
68995;SDS011;56056;48.990;12.146;2023-05-23T09:41:46;1636.32;;;999.90;;
68995;SDS011;56056;48.990;12.146;2023-05-23T09:44:13;1613.80;;;999.90;;
68995;SDS011;56056;48.990;12.146;2023-05-23T09:46:46;1698.30;;;999.90;;
68995;SDS011;56056;48.990;12.146;2023-05-23T09:49:17;1446.70;;;999.90;;
68995;SDS011;56056;48.990;12.146;2023-05-23T09:51:43;1712.40;;;999.90;;
68995;SDS011;56056;48.990;12.146;2023-05-23T09:54:21;1887.45;;;999.90;;
68995;SDS011;56056;48.990;12.146;2023-05-23T09:56:46;1496.20;;;999.90;;
68995;SDS011;56056;48.990;12.146;2023-05-23T09:59:14;1927.70;;;999.90;;
68995;SDS011;56056;48.990;12.146;2023-05-23T10:01:41;1893.63;;;999.90;;
68995;SDS011;56056;48.990;12.146;2023-05-23T10:04:09;1702.35;;;999.90;;
68995;SDS011;56056;48.990;12.146;2023-05-23T10:06:36;1735.30;;;999.90;;
68995;SDS011;56056;48.990;12.146;2023-05-23T10:09:07;1499.70;;;999.90;;
68995;SDS011;56056;48.990;12.146;2023-05-23T10:12:13;1730.25;;;999.90;;
68995;SDS011;56056;48.990;12.146;2023-05-23T10:15:05;1999.90;;;999.90;;
68995;SDS011;56056;48.990;12.146;2023-05-23T10:17:35;1711.30;;;999.90;;
68995;SDS011;56056;48.990;12.146;2023-05-23T10:20:06;1994.35;;;999.90;;
68995;SDS011;56056;48.990;12.146;2023-05-23T10:22:34;1999.90;;;999.90;;
68995;SDS011;56056;48.990;12.146;2023-05-23T10:25:01;1999.90;;;999.90;;
68995;SDS011;56056;48.990;12.146;2023-05-23T10:27:27;1999.90;;;999.90;;
68995;SDS011;56056;48.990;12.146;2023-05-23T10:29:53;1779.75;;;999.90;;
68995;SDS011;56056;48.990;12.146;2023-05-23T10:32:21;1764.35;;;999.90;;
68995;SDS011;56056;48.990;12.146;2023-05-23T10:34:51;1754.03;;;999.90;;
68995;SDS011;56056;48.990;12.146;2023-05-23T10:37:22;1761.28;;;999.90;;
68995;SDS011;56056;48.990;12.146;2023-05-23T10:39:53;1908.10;;;999.90;;
68995;SDS011;56056;48.990;12.146;2023-05-23T10:42:26;1669.07;;;999.90;;
68995;SDS011;56056;48.990;12.146;2023-05-23T10:47:45;1718.53;;;999.90;;
68995;SDS011;56056;48.990;12.146;2023-05-23T10:50:11;1724.82;;;999.90;;
68995;SDS011;56056;48.990;12.146;2023-05-23T10:52:38;1504.78;;;999.90;;
68995;SDS011;56056;48.990;12.146;2023-05-23T10:55:14;1582.72;;;999.90;;
68995;SDS011;56056;48.990;12.146;2023-05-23T10:57:42;1600.88;;;999.90;;
68995;SDS011;56056;48.990;12.146;2023-05-23T11:00:11;1729.25;;;999.90;;
68995;SDS011;56056;48.990;12.146;2023-05-23T11:02:38;1683.43;;;999.90;;
68995;SDS011;56056;48.990;12.146;2023-05-23T11:05:17;1587.45;;;999.90;;
68995;SDS011;56056;48.990;12.146;2023-05-23T11:07:43;1786.00;;;999.90;;
68995;SDS011;56056;48.990;12.146;2023-05-23T11:10:10;1637.82;;;999.90;;
68995;SDS011;56056;48.990;12.146;2023-05-23T11:12:38;1852.25;;;999.90;;
68995;SDS011;56056;48.990;12.146;2023-05-23T11:15:19;1794.82;;;999.90;;
68995;SDS011;56056;48.990;12.146;2023-05-23T11:17:50;1765.82;;;999.90;;
68995;SDS011;56056;48.990;12.146;2023-05-23T11:20:17;1749.50;;;999.90;;
68995;SDS011;56056;48.990;12.146;2023-05-23T11:22:52;1663.80;;;999.90;;
68995;SDS011;56056;48.990;12.146;2023-05-23T11:25:18;1847.10;;;999.90;;
68995;SDS011;56056;48.990;12.146;2023-05-23T11:27:45;1641.05;;;999.90;;
68995;SDS011;56056;48.990;12.146;2023-05-23T11:30:11;1770.82;;;999.90;;
68995;SDS011;56056;48.990;12.146;2023-05-23T11:32:38;1603.03;;;999.90;;
68995;SDS011;56056;48.990;12.146;2023-05-23T11:35:06;1854.00;;;999.90;;
68995;SDS011;56056;48.990;12.146;2023-05-23T11:37:33;1808.40;;;999.90;;
68995;SDS011;56056;48.990;12.146;2023-05-23T11:39:59;1692.13;;;999.90;;
68995;SDS011;56056;48.990;12.146;2023-05-23T11:42:55;1707.22;;;999.90;;
68995;SDS011;56056;48.990;12.146;2023-05-23T11:45:22;1703.97;;;999.90;;
68995;SDS011;56056;48.990;12.146;2023-05-23T11:47:47;1884.53;;;999.90;;
68995;SDS011;56056;48.990;12.146;2023-05-23T11:50:15;1840.00;;;999.90;;
68995;SDS011;56056;48.990;12.146;2023-05-23T11:52:41;1735.80;;;999.90;;
68995;SDS011;56056;48.990;12.146;2023-05-23T11:55:07;1780.53;;;999.90;;
68995;SDS011;56056;48.990;12.146;2023-05-23T11:57:36;1745.63;;;999.90;;
68995;SDS011;56056;48.990;12.146;2023-05-23T12:00:02;1874.80;;;999.90;;
68995;SDS011;56056;48.990;12.146;2023-05-23T12:02:30;1718.95;;;999.90;;
68995;SDS011;56056;48.990;12.146;2023-05-23T12:04:55;1792.97;;;999.90;;
68995;SDS011;56056;48.990;12.146;2023-05-23T12:07:22;1847.35;;;999.90;;
68995;SDS011;56056;48.990;12.146;2023-05-23T12:09:48;1540.55;;;999.90;;
68995;SDS011;56056;48.990;12.146;2023-05-23T12:12:14;1530.38;;;999.90;;
68995;SDS011;56056;48.990;12.146;2023-05-23T12:14:40;1693.75;;;999.90;;
68995;SDS011;56056;48.990;12.146;2023-05-23T12:17:09;1546.68;;;999.90;;
68995;SDS011;56056;48.990;12.146;2023-05-23T12:19:35;1659.50;;;999.90;;
68995;SDS011;56056;48.990;12.146;2023-05-23T12:22:04;1613.75;;;999.90;;
68995;SDS011;56056;48.990;12.146;2023-05-23T12:24:32;1514.63;;;999.90;;
68995;SDS011;56056;48.990;12.146;2023-05-23T12:26:58;1651.75;;;999.90;;
68995;SDS011;56056;48.990;12.146;2023-05-23T12:29:27;1604.43;;;999.90;;
68995;SDS011;56056;48.990;12.146;2023-05-23T12:31:53;1302.75;;;999.90;;
68995;SDS011;56056;48.990;12.146;2023-05-23T12:34:19;1626.45;;;999.90;;
68995;SDS011;56056;48.990;12.146;2023-05-23T12:36:45;1804.70;;;999.90;;
68995;SDS011;56056;48.990;12.146;2023-05-23T12:39:13;1830.68;;;999.90;;
68995;SDS011;56056;48.990;12.146;2023-05-23T12:41:41;1661.55;;;999.90;;
68995;SDS011;56056;48.990;12.146;2023-05-23T12:44:08;1838.18;;;999.90;;
68995;SDS011;56056;48.990;12.146;2023-05-23T12:46:34;1780.65;;;999.90;;
68995;SDS011;56056;48.990;12.146;2023-05-23T12:48:59;1851.15;;;999.90;;
68995;SDS011;56056;48.990;12.146;2023-05-23T12:51:25;1559.15;;;999.90;;
68995;SDS011;56056;48.990;12.146;2023-05-23T12:53:51;1540.30;;;999.90;;
68995;SDS011;56056;48.990;12.146;2023-05-23T12:56:16;1733.10;;;999.90;;
68995;SDS011;56056;48.990;12.146;2023-05-23T12:58:44;1684.82;;;999.90;;
68995;SDS011;56056;48.990;12.146;2023-05-23T13:01:09;1496.90;;;999.90;;
68995;SDS011;56056;48.990;12.146;2023-05-23T13:03:35;1478.72;;;999.90;;
68995;SDS011;56056;48.990;12.146;2023-05-23T13:06:01;1685.95;;;999.90;;
68995;SDS011;56056;48.990;12.146;2023-05-23T13:08:26;1493.03;;;999.90;;
68995;SDS011;56056;48.990;12.146;2023-05-23T13:10:53;1566.00;;;999.90;;
68995;SDS011;56056;48.990;12.146;2023-05-23T13:13:19;1780.03;;;999.90;;
68995;SDS011;56056;48.990;12.146;2023-05-23T13:15:46;1650.03;;;999.90;;
68995;SDS011;56056;48.990;12.146;2023-05-23T13:18:12;1569.95;;;999.90;;
68995;SDS011;56056;48.990;12.146;2023-05-23T13:20:37;1495.85;;;999.90;;
68995;SDS011;56056;48.990;12.146;2023-05-23T13:23:03;1558.22;;;999.90;;
68995;SDS011;56056;48.990;12.146;2023-05-23T13:25:29;1297.22;;;999.90;;
68995;SDS011;56056;48.990;12.146;2023-05-23T13:27:55;1192.97;;;999.90;;
68995;SDS011;56056;48.990;12.146;2023-05-23T13:30:21;1730.65;;;999.90;;
68995;SDS011;56056;48.990;12.146;2023-05-23T13:32:49;1574.20;;;999.90;;
68995;SDS011;56056;48.990;12.146;2023-05-23T13:35:15;1580.25;;;999.90;;
68995;SDS011;56056;48.990;12.146;2023-05-23T13:37:40;1517.07;;;999.90;;
68995;SDS011;56056;48.990;12.146;2023-05-23T13:40:06;1676.82;;;999.90;;